Time;durP1;ratioP1;P1;durP2;ratioP2;P2;SDS_P1;SDS_P2;PMS_P1;PMS_P2;Temp;Humidity;BMP_temperature;BMP_pressure;BME280_temperature;BME280_humidity;BME280_pressure;Samples;Min_cycle;Max_cycle;Signal;HPM_P1;HPM_P2
2023/12/31 00:01:03;;;;;;;14;7.1;;;;;;;6.57;84.49;;;;;
2023/12/31 00:11:03;;;;;;;12.9;7.5;;;;;;;6.51;84.36;;;;;
2023/12/31 00:22:03;;;;;;;12.9;7.5;;;;;;;6.57;84.53;;;;;
2023/12/31 00:33:03;;;;;;;12.9;7.5;;;;;;;6.61;84.25;;;;;
2023/12/31 00:44:03;;;;;;;18.8;7.3;;;;;;;6.62;83.78;;;;;
2023/12/31 00:55:03;;;;;;;18.8;7.3;;;;;;;6.5;84;;;;;
2023/12/31 01:05:03;;;;;;;18.8;7.3;;;;;;;6.48;83.93;;;;;
2023/12/31 01:16:04;;;;;;;12.9;7.2;;;;;;;6.54;83.84;;;;;
2023/12/31 01:27:04;;;;;;;12.9;7.2;;;;;;;6.55;83.35;;;;;
2023/12/31 01:37:04;;;;;;;13.3;7.7;;;;;;;6.3;83.96;;;;;
2023/12/31 01:47:03;;;;;;;13.3;7.7;;;;;;;6.19;83.46;;;;;
2023/12/31 01:58:03;;;;;;;13.3;7.7;;;;;;;5.71;83.83;;;;;
2023/12/31 02:08:04;;;;;;;11.7;5.5;;;;;;;5.52;83.36;;;;;
2023/12/31 02:19:05;;;;;;;11.7;5.5;;;;;;;5.18;84.12;;;;;
2023/12/31 02:29:03;;;;;;;11.7;5.5;;;;;;;4.9;83.77;;;;;
2023/12/31 02:40:03;;;;;;;9.6;5.1;;;;;;;4.53;84.71;;;;;
2023/12/31 02:51:03;;;;;;;9.6;5.1;;;;;;;4.28;85.86;;;;;
2023/12/31 03:01:04;;;;;;;9.6;5.1;;;;;;;4.08;86.61;;;;;
2023/12/31 03:12:03;;;;;;;9.7;5.6;;;;;;;3.84;86.1;;;;;
2023/12/31 03:22:03;;;;;;;9.7;5.6;;;;;;;3.62;86.56;;;;;
2023/12/31 03:32:04;;;;;;;9.7;5.6;;;;;;;3.42;86.48;;;;;
2023/12/31 03:42:03;;;;;;;7.1;3.7;;;;;;;3.28;86.69;;;;;
2023/12/31 03:52:03;;;;;;;7.1;3.7;;;;;;;3.02;86.09;;;;;
2023/12/31 04:02:04;;;;;;;7.1;3.7;;;;;;;2.75;86.63;;;;;
2023/12/31 04:13:03;;;;;;;10.3;5;;;;;;;2.6;86.62;;;;;
2023/12/31 04:23:04;;;;;;;10.3;5;;;;;;;2.58;87.84;;;;;
2023/12/31 04:34:04;;;;;;;10.3;5;;;;;;;2.43;87.57;;;;;
2023/12/31 04:45:07;;;;;;;10.2;5.5;;;;;;;2.3;87.71;;;;;
2023/12/31 04:55:03;;;;;;;10.2;5.5;;;;;;;2.27;88.51;;;;;
2023/12/31 05:05:04;;;;;;;10.2;5.5;;;;;;;2.27;88.9;;;;;
2023/12/31 05:16:03;;;;;;;8.3;4.9;;;;;;;2.4;91.31;;;;;
2023/12/31 05:27:03;;;;;;;8.3;4.9;;;;;;;2.71;91.79;;;;;
2023/12/31 05:37:04;;;;;;;8.3;4.2;;;;;;;2.25;89.06;;;;;
2023/12/31 05:47:04;;;;;;;8.3;4.2;;;;;;;2.04;88.48;;;;;
2023/12/31 05:58:04;;;;;;;8.3;4.2;;;;;;;1.8;88.36;;;;;
2023/12/31 06:09:03;;;;;;;10.1;5.7;;;;;;;1.63;87.98;;;;;
2023/12/31 06:19:04;;;;;;;10.1;5.7;;;;;;;1.4;87.61;;;;;
2023/12/31 06:30:03;;;;;;;10.1;5.7;;;;;;;1.24;88.05;;;;;
2023/12/31 06:41:04;;;;;;;11.5;6.9;;;;;;;1.15;88.12;;;;;
2023/12/31 06:51:03;;;;;;;11.5;6.9;;;;;;;1.03;87.86;;;;;
2023/12/31 07:02:04;;;;;;;11.5;6.9;;;;;;;0.95;87.89;;;;;
2023/12/31 07:12:04;;;;;;;13.9;8.8;;;;;;;0.95;88.56;;;;;
2023/12/31 07:23:04;;;;;;;13.9;8.8;;;;;;;1.1;88.79;;;;;
2023/12/31 07:34:04;;;;;;;13.9;8.8;;;;;;;1.31;89.12;;;;;
2023/12/31 07:45:04;;;;;;;13.6;8.4;;;;;;;1.43;88.45;;;;;
2023/12/31 07:55:04;;;;;;;13.6;8.4;;;;;;;1.6;89.35;;;;;
2023/12/31 08:05:04;;;;;;;13.6;8.4;;;;;;;1.95;89.59;;;;;
2023/12/31 08:16:05;;;;;;;16.4;9.1;;;;;;;2.3;89.07;;;;;
2023/12/31 08:27:04;;;;;;;16.4;9.1;;;;;;;2.54;88.79;;;;;
2023/12/31 08:37:04;;;;;;;14.5;8.8;;;;;;;2.58;86.99;;;;;
2023/12/31 08:48:04;;;;;;;14.5;8.8;;;;;;;2.92;88.05;;;;;
2023/12/31 08:58:04;;;;;;;14.5;8.8;;;;;;;3.09;87.61;;;;;
2023/12/31 09:08:04;;;;;;;15.1;8.7;;;;;;;3.55;87.5;;;;;
2023/12/31 09:19:04;;;;;;;15.1;8.7;;;;;;;3.76;86.73;;;;;
2023/12/31 09:29:04;;;;;;;15.1;8.7;;;;;;;4.11;87.15;;;;;
2023/12/31 09:39:04;;;;;;;15.9;10.1;;;;;;;4.41;87.03;;;;;
2023/12/31 09:49:04;;;;;;;15.9;10.1;;;;;;;4.84;86.95;;;;;
2023/12/31 10:00:04;;;;;;;15.9;10.1;;;;;;;5.27;85.91;;;;;
2023/12/31 10:10:04;;;;;;;17.5;9.1;;;;;;;5.7;85.69;;;;;
2023/12/31 10:21:04;;;;;;;17.5;9.1;;;;;;;6.3;85.07;;;;;
2023/12/31 10:31:04;;;;;;;17.5;9.1;;;;;;;6.63;83.98;;;;;
2023/12/31 10:41:04;;;;;;;14.9;9.7;;;;;;;6.85;83.14;;;;;
2023/12/31 10:52:04;;;;;;;14.9;9.7;;;;;;;6.92;81.99;;;;;
2023/12/31 11:03:04;;;;;;;14.9;9.7;;;;;;;6.94;82.06;;;;;
2023/12/31 11:14:04;;;;;;;17.1;10.6;;;;;;;7.43;81.26;;;;;
2023/12/31 11:25:04;;;;;;;17.1;10.6;;;;;;;7.51;82.19;;;;;
2023/12/31 11:35:05;;;;;;;17.1;10.6;;;;;;;8.18;81.22;;;;;
2023/12/31 11:46:04;;;;;;;17.8;11.7;;;;;;;8.45;80.24;;;;;
2023/12/31 11:57:04;;;;;;;17.8;11.7;;;;;;;8.58;79.99;;;;;
2023/12/31 12:07:04;;;;;;;16.5;10.9;;;;;;;8.7;80.69;;;;;
2023/12/31 12:18:04;;;;;;;16.5;10.9;;;;;;;9.23;78.85;;;;;
2023/12/31 12:28:04;;;;;;;16.5;10.9;;;;;;;9.3;77.5;;;;;
2023/12/31 12:39:05;;;;;;;11.5;8;;;;;;;8.97;78.09;;;;;
2023/12/31 12:50:04;;;;;;;11.5;8;;;;;;;8.62;78;;;;;
2023/12/31 13:00:04;;;;;;;11.5;8;;;;;;;8.67;78.51;;;;;
2023/12/31 13:10:04;;;;;;;14.2;9.7;;;;;;;8.39;79.32;;;;;
2023/12/31 13:21:04;;;;;;;14.2;9.7;;;;;;;8.36;79.74;;;;;
2023/12/31 13:32:06;;;;;;;14.2;9.7;;;;;;;7.97;80.79;;;;;
2023/12/31 13:43:04;;;;;;;34.6;18.6;;;;;;;7.61;82.25;;;;;
2023/12/31 13:54:04;;;;;;;34.6;18.6;;;;;;;7.12;83.69;;;;;
2023/12/31 14:04:05;;;;;;;34.6;18.6;;;;;;;6.89;84.54;;;;;
2023/12/31 16:32:04;;;;;;;18.1;;;;;;;;;;;;;;
